sensor_id;sensor_type;location;lat;lon;timestamp;pressure;altitude;pressure_sealevel;temperature;humidity
27014;BME280;14556;52.222;4.510;2023-04-27T00:01:11;101447.53;;;2.64;100.00
27014;BME280;14556;52.222;4.510;2023-04-27T00:03:38;101453.09;;;2.61;100.00
27014;BME280;14556;52.222;4.510;2023-04-27T00:06:06;101445.97;;;2.52;100.00
27014;BME280;14556;52.222;4.510;2023-04-27T00:08:33;101446.78;;;2.52;100.00
27014;BME280;14556;52.222;4.510;2023-04-27T00:11:00;101446.66;;;2.54;100.00
27014;BME280;14556;52.222;4.510;2023-04-27T00:13:27;101420.34;;;2.42;100.00
27014;BME280;14556;52.222;4.510;2023-04-27T00:15:54;101457.13;;;2.56;100.00
27014;BME280;14556;52.222;4.510;2023-04-27T00:18:20;101454.34;;;2.57;100.00
27014;BME280;14556;52.222;4.510;2023-04-27T00:20:47;101447.50;;;2.54;100.00
27014;BME280;14556;52.222;4.510;2023-04-27T00:23:14;101444.94;;;2.43;100.00
27014;BME280;14556;52.222;4.510;2023-04-27T00:25:40;101457.94;;;2.35;100.00
27014;BME280;14556;52.222;4.510;2023-04-27T00:28:07;101458.34;;;2.30;100.00
27014;BME280;14556;52.222;4.510;2023-04-27T00:30:33;101452.66;;;2.35;100.00
27014;BME280;14556;52.222;4.510;2023-04-27T00:33:01;101452.91;;;2.53;100.00
27014;BME280;14556;52.222;4.510;2023-04-27T00:35:27;101444.41;;;2.49;100.00
27014;BME280;14556;52.222;4.510;2023-04-27T00:37:54;101453.44;;;2.47;100.00
27014;BME280;14556;52.222;4.510;2023-04-27T00:40:20;101454.41;;;2.46;100.00
27014;BME280;14556;52.222;4.510;2023-04-27T00:42:47;101446.75;;;2.42;100.00
27014;BME280;14556;52.222;4.510;2023-04-27T00:45:13;101443.53;;;2.39;100.00
27014;BME280;14556;52.222;4.510;2023-04-27T00:47:40;101447.44;;;2.23;100.00
27014;BME280;14556;52.222;4.510;2023-04-27T00:50:08;101443.97;;;2.23;100.00
27014;BME280;14556;52.222;4.510;2023-04-27T00:52:36;101441.84;;;2.16;100.00
27014;BME280;14556;52.222;4.510;2023-04-27T00:55:03;101440.22;;;2.04;100.00
27014;BME280;14556;52.222;4.510;2023-04-27T00:57:31;101429.47;;;1.96;100.00
27014;BME280;14556;52.222;4.510;2023-04-27T00:59:59;101437.41;;;1.96;100.00
27014;BME280;14556;52.222;4.510;2023-04-27T01:02:25;101437.25;;;1.97;100.00
27014;BME280;14556;52.222;4.510;2023-04-27T01:04:53;101437.72;;;2.02;100.00
27014;BME280;14556;52.222;4.510;2023-04-27T01:07:24;101441.66;;;2.08;100.00
27014;BME280;14556;52.222;4.510;2023-04-27T01:09:52;101442.16;;;2.02;100.00
27014;BME280;14556;52.222;4.510;2023-04-27T01:12:18;101447.34;;;1.92;100.00
27014;BME280;14556;52.222;4.510;2023-04-27T01:14:45;101449.78;;;1.84;100.00
27014;BME280;14556;52.222;4.510;2023-04-27T01:17:11;101437.41;;;1.84;100.00
27014;BME280;14556;52.222;4.510;2023-04-27T01:19:39;101430.53;;;1.72;100.00
27014;BME280;14556;52.222;4.510;2023-04-27T01:22:05;101440.72;;;1.76;100.00
27014;BME280;14556;52.222;4.510;2023-04-27T01:24:34;101419.50;;;1.66;100.00
27014;BME280;14556;52.222;4.510;2023-04-27T01:27:02;101414.91;;;1.80;100.00
27014;BME280;14556;52.222;4.510;2023-04-27T01:29:29;101420.47;;;1.65;100.00
27014;BME280;14556;52.222;4.510;2023-04-27T01:31:56;101424.78;;;1.66;100.00
27014;BME280;14556;52.222;4.510;2023-04-27T01:34:22;101416.09;;;1.87;100.00
27014;BME280;14556;52.222;4.510;2023-04-27T01:36:49;101403.25;;;1.83;100.00
27014;BME280;14556;52.222;4.510;2023-04-27T01:39:15;101418.72;;;1.87;100.00
27014;BME280;14556;52.222;4.510;2023-04-27T01:41:42;101411.50;;;1.89;100.00
27014;BME280;14556;52.222;4.510;2023-04-27T01:44:09;101410.91;;;1.86;100.00
27014;BME280;14556;52.222;4.510;2023-04-27T01:46:37;101411.34;;;1.69;100.00
27014;BME280;14556;52.222;4.510;2023-04-27T01:49:03;101409.97;;;1.87;100.00
27014;BME280;14556;52.222;4.510;2023-04-27T01:51:30;101415.63;;;1.82;100.00
27014;BME280;14556;52.222;4.510;2023-04-27T01:53:58;101413.00;;;1.82;100.00
27014;BME280;14556;52.222;4.510;2023-04-27T01:56:24;101414.78;;;1.81;100.00
27014;BME280;14556;52.222;4.510;2023-04-27T01:58:52;101407.25;;;1.77;100.00
27014;BME280;14556;52.222;4.510;2023-04-27T02:01:18;101401.84;;;1.78;100.00
27014;BME280;14556;52.222;4.510;2023-04-27T02:03:46;101413.88;;;1.71;100.00
27014;BME280;14556;52.222;4.510;2023-04-27T02:06:13;101401.81;;;1.57;100.00
27014;BME280;14556;52.222;4.510;2023-04-27T02:08:40;101411.25;;;1.60;100.00
27014;BME280;14556;52.222;4.510;2023-04-27T02:11:07;101406.81;;;1.60;100.00
27014;BME280;14556;52.222;4.510;2023-04-27T02:13:35;101406.94;;;1.59;100.00
27014;BME280;14556;52.222;4.510;2023-04-27T02:16:01;101405.03;;;1.61;100.00
27014;BME280;14556;52.222;4.510;2023-04-27T02:18:31;101402.25;;;1.62;100.00
27014;BME280;14556;52.222;4.510;2023-04-27T02:20:58;101405.16;;;1.59;100.00
27014;BME280;14556;52.222;4.510;2023-04-27T02:23:25;101394.75;;;1.58;100.00
27014;BME280;14556;52.222;4.510;2023-04-27T02:25:52;101402.41;;;1.61;100.00
27014;BME280;14556;52.222;4.510;2023-04-27T02:28:18;101403.22;;;1.61;100.00
27014;BME280;14556;52.222;4.510;2023-04-27T02:30:45;101377.63;;;1.52;100.00
27014;BME280;14556;52.222;4.510;2023-04-27T02:33:11;101390.63;;;1.65;100.00
27014;BME280;14556;52.222;4.510;2023-04-27T02:35:38;101374.34;;;1.60;100.00
27014;BME280;14556;52.222;4.510;2023-04-27T02:38:04;101381.88;;;1.64;100.00
27014;BME280;14556;52.222;4.510;2023-04-27T02:40:32;101395.41;;;1.71;100.00
27014;BME280;14556;52.222;4.510;2023-04-27T02:42:58;101391.91;;;1.71;100.00
27014;BME280;14556;52.222;4.510;2023-04-27T02:45:25;101385.78;;;1.70;100.00
27014;BME280;14556;52.222;4.510;2023-04-27T02:47:51;101384.13;;;1.69;100.00
27014;BME280;14556;52.222;4.510;2023-04-27T02:50:18;101371.22;;;1.66;100.00
27014;BME280;14556;52.222;4.510;2023-04-27T02:52:44;101401.47;;;1.83;100.00
27014;BME280;14556;52.222;4.510;2023-04-27T02:55:11;101398.94;;;1.81;100.00
27014;BME280;14556;52.222;4.510;2023-04-27T02:57:38;101399.91;;;1.80;100.00
27014;BME280;14556;52.222;4.510;2023-04-27T03:00:05;101396.00;;;1.75;100.00
27014;BME280;14556;52.222;4.510;2023-04-27T03:02:32;101401.47;;;1.83;100.00
27014;BME280;14556;52.222;4.510;2023-04-27T03:04:59;101400.63;;;1.83;100.00
27014;BME280;14556;52.222;4.510;2023-04-27T03:07:25;101404.50;;;1.78;100.00
27014;BME280;14556;52.222;4.510;2023-04-27T03:09:52;101400.63;;;1.83;100.00
27014;BME280;14556;52.222;4.510;2023-04-27T03:12:18;101403.97;;;1.85;100.00
27014;BME280;14556;52.222;4.510;2023-04-27T03:14:45;101403.38;;;1.81;100.00
27014;BME280;14556;52.222;4.510;2023-04-27T03:17:12;101406.41;;;1.76;100.00
27014;BME280;14556;52.222;4.510;2023-04-27T03:19:38;101396.13;;;1.73;100.00
27014;BME280;14556;52.222;4.510;2023-04-27T03:22:04;101400.16;;;1.77;100.00
27014;BME280;14556;52.222;4.510;2023-04-27T03:24:31;101403.50;;;1.79;100.00
27014;BME280;14556;52.222;4.510;2023-04-27T03:26:58;101395.72;;;1.78;100.00
27014;BME280;14556;52.222;4.510;2023-04-27T03:29:25;101401.84;;;1.78;100.00
27014;BME280;14556;52.222;4.510;2023-04-27T03:31:51;101405.69;;;1.74;100.00
27014;BME280;14556;52.222;4.510;2023-04-27T03:34:18;101400.69;;;1.71;100.00
27014;BME280;14556;52.222;4.510;2023-04-27T03:36:46;101395.75;;;1.66;100.00
27014;BME280;14556;52.222;4.510;2023-04-27T03:39:12;101402.00;;;1.65;100.00
27014;BME280;14556;52.222;4.510;2023-04-27T03:41:39;101390.28;;;1.58;100.00
27014;BME280;14556;52.222;4.510;2023-04-27T03:44:06;101400.84;;;1.58;100.00
27014;BME280;14556;52.222;4.510;2023-04-27T03:46:32;101396.66;;;1.55;100.00
27014;BME280;14556;52.222;4.510;2023-04-27T03:48:59;101405.66;;;1.53;100.00
27014;BME280;14556;52.222;4.510;2023-04-27T03:51:26;101410.66;;;1.56;100.00
27014;BME280;14556;52.222;4.510;2023-04-27T03:53:52;101405.50;;;1.54;100.00
27014;BME280;14556;52.222;4.510;2023-04-27T03:56:19;101410.56;;;1.58;100.00
27014;BME280;14556;52.222;4.510;2023-04-27T03:58:46;101416.31;;;1.63;100.00
27014;BME280;14556;52.222;4.510;2023-04-27T04:01:12;101416.66;;;1.58;100.00
27014;BME280;14556;52.222;4.510;2023-04-27T04:03:40;101414.41;;;1.53;100.00
27014;BME280;14556;52.222;4.510;2023-04-27T04:06:07;101409.53;;;1.37;100.00
27014;BME280;14556;52.222;4.510;2023-04-27T04:08:34;101423.69;;;1.36;100.00
27014;BME280;14556;52.222;4.510;2023-04-27T04:11:00;101416.13;;;1.31;100.00
27014;BME280;14556;52.222;4.510;2023-04-27T04:13:27;101433.38;;;1.36;100.00
27014;BME280;14556;52.222;4.510;2023-04-27T04:16:07;101425.72;;;1.32;100.00
27014;BME280;14556;52.222;4.510;2023-04-27T04:18:35;101433.75;;;1.31;100.00
27014;BME280;14556;52.222;4.510;2023-04-27T04:21:02;101438.91;;;1.32;100.00
27014;BME280;14556;52.222;4.510;2023-04-27T04:23:28;101434.81;;;1.28;100.00
27014;BME280;14556;52.222;4.510;2023-04-27T04:25:55;101435.19;;;1.24;100.00
27014;BME280;14556;52.222;4.510;2023-04-27T04:28:22;101444.09;;;1.23;100.00
27014;BME280;14556;52.222;4.510;2023-04-27T04:30:49;101452.94;;;1.22;100.00
27014;BME280;14556;52.222;4.510;2023-04-27T04:33:16;101450.75;;;1.27;100.00
27014;BME280;14556;52.222;4.510;2023-04-27T04:35:43;101455.78;;;1.30;100.00
27014;BME280;14556;52.222;4.510;2023-04-27T04:38:10;101451.00;;;1.24;100.00
27014;BME280;14556;52.222;4.510;2023-04-27T04:40:39;101451.13;;;1.22;100.00
27014;BME280;14556;52.222;4.510;2023-04-27T04:43:10;101439.41;;;1.15;100.00
27014;BME280;14556;52.222;4.510;2023-04-27T04:45:37;101456.63;;;1.30;100.00
27014;BME280;14556;52.222;4.510;2023-04-27T04:48:04;101456.03;;;1.38;100.00
27014;BME280;14556;52.222;4.510;2023-04-27T04:50:30;101458.41;;;1.41;100.00
27014;BME280;14556;52.222;4.510;2023-04-27T04:52:57;101447.75;;;1.43;100.00
27014;BME280;14556;52.222;4.510;2023-04-27T04:55:26;101449.66;;;1.41;100.00
27014;BME280;14556;52.222;4.510;2023-04-27T04:57:53;101444.66;;;1.38;100.00
27014;BME280;14556;52.222;4.510;2023-04-27T05:00:20;101453.88;;;1.43;100.00
27014;BME280;14556;52.222;4.510;2023-04-27T05:02:47;101440.19;;;1.50;100.00
27014;BME280;14556;52.222;4.510;2023-04-27T05:05:14;101438.13;;;1.53;100.00
27014;BME280;14556;52.222;4.510;2023-04-27T05:07:41;101434.84;;;1.61;100.00
27014;BME280;14556;52.222;4.510;2023-04-27T05:10:08;101444.22;;;1.65;100.00
27014;BME280;14556;52.222;4.510;2023-04-27T05:12:35;101442.88;;;1.71;100.00
27014;BME280;14556;52.222;4.510;2023-04-27T05:15:01;101445.53;;;1.71;100.00
27014;BME280;14556;52.222;4.510;2023-04-27T05:17:28;101443.34;;;1.76;100.00
27014;BME280;14556;52.222;4.510;2023-04-27T05:19:55;101451.47;;;1.85;100.00
27014;BME280;14556;52.222;4.510;2023-04-27T05:22:22;101447.63;;;1.89;100.00
27014;BME280;14556;52.222;4.510;2023-04-27T05:24:48;101438.59;;;1.91;100.00
27014;BME280;14556;52.222;4.510;2023-04-27T05:27:14;101436.94;;;1.90;100.00
27014;BME280;14556;52.222;4.510;2023-04-27T05:29:41;101439.91;;;1.97;100.00
27014;BME280;14556;52.222;4.510;2023-04-27T05:32:07;101439.38;;;2.03;100.00
27014;BME280;14556;52.222;4.510;2023-04-27T05:34:35;101438.31;;;2.06;100.00
27014;BME280;14556;52.222;4.510;2023-04-27T05:37:02;101436.25;;;2.10;100.00
27014;BME280;14556;52.222;4.510;2023-04-27T05:39:28;101432.00;;;2.19;100.00
27014;BME280;14556;52.222;4.510;2023-04-27T05:41:55;101438.56;;;2.24;100.00
27014;BME280;14556;52.222;4.510;2023-04-27T05:44:21;101438.69;;;2.23;100.00
27014;BME280;14556;52.222;4.510;2023-04-27T05:46:50;101443.97;;;2.23;100.00
27014;BME280;14556;52.222;4.510;2023-04-27T05:49:17;101447.44;;;2.23;100.00
27014;BME280;14556;52.222;4.510;2023-04-27T05:51:43;101419.44;;;2.11;100.00
27014;BME280;14556;52.222;4.510;2023-04-27T05:54:10;101447.63;;;2.32;100.00
27014;BME280;14556;52.222;4.510;2023-04-27T05:56:37;101451.03;;;2.44;100.00
27014;BME280;14556;52.222;4.510;2023-04-27T05:59:03;101447.91;;;2.50;100.00
27014;BME280;14556;52.222;4.510;2023-04-27T06:01:30;101453.09;;;2.61;100.00
27014;BME280;14556;52.222;4.510;2023-04-27T06:03:56;101446.91;;;2.72;100.00
27014;BME280;14556;52.222;4.510;2023-04-27T06:06:30;101447.22;;;2.79;100.00
27014;BME280;14556;52.222;4.510;2023-04-27T06:08:57;101452.50;;;2.79;100.00
27014;BME280;14556;52.222;4.510;2023-04-27T06:11:23;101454.63;;;2.85;100.00
27014;BME280;14556;52.222;4.510;2023-04-27T06:13:50;101459.38;;;2.92;100.00
27014;BME280;14556;52.222;4.510;2023-04-27T06:16:16;101451.31;;;2.93;100.00
27014;BME280;14556;52.222;4.510;2023-04-27T06:18:43;101452.03;;;3.05;100.00
27014;BME280;14556;52.222;4.510;2023-04-27T06:21:09;101456.25;;;3.18;100.00
27014;BME280;14556;52.222;4.510;2023-04-27T06:23:36;101455.59;;;3.25;100.00
27014;BME280;14556;52.222;4.510;2023-04-27T06:26:02;101450.47;;;3.34;100.00
27014;BME280;14556;52.222;4.510;2023-04-27T06:28:29;101443.25;;;3.36;100.00
27014;BME280;14556;52.222;4.510;2023-04-27T06:30:55;101444.53;;;3.52;100.00
27014;BME280;14556;52.222;4.510;2023-04-27T06:33:22;101447.31;;;3.60;100.00
27014;BME280;14556;52.222;4.510;2023-04-27T06:35:48;101439.94;;;3.63;100.00
27014;BME280;14556;52.222;4.510;2023-04-27T06:38:15;101444.66;;;3.70;100.00
27014;BME280;14556;52.222;4.510;2023-04-27T06:40:42;101441.91;;;3.81;100.00
27014;BME280;14556;52.222;4.510;2023-04-27T06:43:08;101447.47;;;3.98;100.00
27014;BME280;14556;52.222;4.510;2023-04-27T06:45:35;101439.53;;;4.08;100.00
27014;BME280;14556;52.222;4.510;2023-04-27T06:48:01;101445.25;;;4.13;100.00
27014;BME280;14556;52.222;4.510;2023-04-27T06:50:28;101444.53;;;4.21;100.00
27014;BME280;14556;52.222;4.510;2023-04-27T06:52:55;101446.06;;;4.23;100.00
27014;BME280;14556;52.222;4.510;2023-04-27T06:55:22;101450.78;;;4.30;100.00
27014;BME280;14556;52.222;4.510;2023-04-27T06:57:49;101454.94;;;4.42;100.00
27014;BME280;14556;52.222;4.510;2023-04-27T07:00:15;101455.06;;;4.51;100.00
27014;BME280;14556;52.222;4.510;2023-04-27T07:02:42;101450.31;;;4.54;100.00
27014;BME280;14556;52.222;4.510;2023-04-27T07:05:09;101447.63;;;4.64;100.00
27014;BME280;14556;52.222;4.510;2023-04-27T07:07:36;101449.72;;;4.70;100.00
27014;BME280;14556;52.222;4.510;2023-04-27T07:10:02;101446.81;;;4.64;100.00
27014;BME280;14556;52.222;4.510;2023-04-27T07:12:29;101453.16;;;4.81;100.00
27014;BME280;14556;52.222;4.510;2023-04-27T07:14:55;101442.97;;;4.86;100.00
27014;BME280;14556;52.222;4.510;2023-04-27T07:17:22;101441.50;;;5.02;100.00
27014;BME280;14556;52.222;4.510;2023-04-27T07:19:49;101430.84;;;5.12;100.00
27014;BME280;14556;52.222;4.510;2023-04-27T07:22:15;101436.88;;;5.32;100.00
27014;BME280;14556;52.222;4.510;2023-04-27T07:24:42;101431.50;;;5.42;100.00
27014;BME280;14556;52.222;4.510;2023-04-27T07:27:09;101442.88;;;5.52;100.00
27014;BME280;14556;52.222;4.510;2023-04-27T07:29:35;101425.69;;;5.56;100.00
27014;BME280;14556;52.222;4.510;2023-04-27T07:32:07;101432.53;;;5.77;100.00
27014;BME280;14556;52.222;4.510;2023-04-27T07:34:34;101428.56;;;5.81;100.00
27014;BME280;14556;52.222;4.510;2023-04-27T07:37:17;101432.69;;;5.76;100.00
27014;BME280;14556;52.222;4.510;2023-04-27T07:39:45;101425.16;;;5.89;100.00
27014;BME280;14556;52.222;4.510;2023-04-27T07:42:12;101427.50;;;5.92;100.00
27014;BME280;14556;52.222;4.510;2023-04-27T07:44:38;101428.25;;;6.03;100.00
27014;BME280;14556;52.222;4.510;2023-04-27T07:47:06;101406.16;;;6.02;100.00
27014;BME280;14556;52.222;4.510;2023-04-27T07:49:33;101422.72;;;6.14;100.00
27014;BME280;14556;52.222;4.510;2023-04-27T07:52:00;101421.00;;;6.32;100.00
27014;BME280;14556;52.222;4.510;2023-04-27T07:54:27;101415.38;;;6.35;100.00
27014;BME280;14556;52.222;4.510;2023-04-27T07:56:53;101412.38;;;6.29;100.00
27014;BME280;14556;52.222;4.510;2023-04-27T07:59:20;101410.38;;;6.32;100.00
27014;BME280;14556;52.222;4.510;2023-04-27T08:01:47;101416.22;;;6.35;100.00
27014;BME280;14556;52.222;4.510;2023-04-27T08:04:13;101413.03;;;6.32;100.00
27014;BME280;14556;52.222;4.510;2023-04-27T08:06:41;101404.75;;;6.35;100.00
27014;BME280;14556;52.222;4.510;2023-04-27T08:09:08;101408.09;;;6.37;100.00
27014;BME280;14556;52.222;4.510;2023-04-27T08:11:35;101403.19;;;6.50;100.00
27014;BME280;14556;52.222;4.510;2023-04-27T08:14:02;101403.41;;;6.65;100.00
27014;BME280;14556;52.222;4.510;2023-04-27T08:16:28;101400.50;;;6.77;100.00
27014;BME280;14556;52.222;4.510;2023-04-27T08:18:55;101408.34;;;6.87;100.00
27014;BME280;14556;52.222;4.510;2023-04-27T08:21:23;101410.06;;;6.96;100.00
27014;BME280;14556;52.222;4.510;2023-04-27T08:23:50;101402.06;;;6.96;100.00
27014;BME280;14556;52.222;4.510;2023-04-27T08:26:16;101400.94;;;7.07;100.00
27014;BME280;14556;52.222;4.510;2023-04-27T08:28:44;101408.06;;;6.98;100.00
27014;BME280;14556;52.222;4.510;2023-04-27T08:31:11;101380.78;;;6.88;100.00
27014;BME280;14556;52.222;4.510;2023-04-27T08:33:38;101404.06;;;6.94;100.00
27014;BME280;14556;52.222;4.510;2023-04-27T08:36:04;101404.22;;;6.93;100.00
27014;BME280;14556;52.222;4.510;2023-04-27T08:38:33;101403.25;;;7.02;100.00
27014;BME280;14556;52.222;4.510;2023-04-27T08:41:00;101397.00;;;7.28;96.26
27014;BME280;14556;52.222;4.510;2023-04-27T08:43:39;101378.72;;;7.33;100.00
27014;BME280;14556;52.222;4.510;2023-04-27T08:46:06;101392.03;;;7.50;93.86
27014;BME280;14556;52.222;4.510;2023-04-27T08:48:33;101388.03;;;7.37;91.99
27014;BME280;14556;52.222;4.510;2023-04-27T08:51:00;101389.88;;;7.45;98.15
27014;BME280;14556;52.222;4.510;2023-04-27T08:53:27;101384.56;;;7.62;92.47
27014;BME280;14556;52.222;4.510;2023-04-27T08:55:54;101392.56;;;7.79;91.50
27014;BME280;14556;52.222;4.510;2023-04-27T08:58:34;101386.25;;;7.96;99.40
27014;BME280;14556;52.222;4.510;2023-04-27T09:01:04;101363.59;;;7.84;91.07
27014;BME280;14556;52.222;4.510;2023-04-27T09:03:35;101390.41;;;7.99;96.51
27014;BME280;14556;52.222;4.510;2023-04-27T09:06:03;101388.09;;;7.79;92.35
27014;BME280;14556;52.222;4.510;2023-04-27T09:08:42;101379.94;;;7.81;95.44
27014;BME280;14556;52.222;4.510;2023-04-27T09:11:09;101359.28;;;7.74;89.61
27014;BME280;14556;52.222;4.510;2023-04-27T09:13:37;101369.09;;;7.91;90.85
27014;BME280;14556;52.222;4.510;2023-04-27T09:16:05;101355.28;;;8.04;85.12
27014;BME280;14556;52.222;4.510;2023-04-27T09:18:35;101381.06;;;8.12;83.01
27014;BME280;14556;52.222;4.510;2023-04-27T09:21:02;101374.19;;;8.26;82.22
27014;BME280;14556;52.222;4.510;2023-04-27T09:23:30;101379.00;;;8.30;79.89
27014;BME280;14556;52.222;4.510;2023-04-27T09:25:58;101385.47;;;8.44;81.47
27014;BME280;14556;52.222;4.510;2023-04-27T09:28:26;101350.19;;;8.34;73.58
27014;BME280;14556;52.222;4.510;2023-04-27T09:30:58;101368.81;;;8.51;72.65
27014;BME280;14556;52.222;4.510;2023-04-27T09:33:29;101372.47;;;8.50;76.69
27014;BME280;14556;52.222;4.510;2023-04-27T09:35:57;101368.63;;;8.61;75.78
27014;BME280;14556;52.222;4.510;2023-04-27T09:38:24;101386.28;;;8.62;77.56
27014;BME280;14556;52.222;4.510;2023-04-27T09:40:52;101378.06;;;8.80;75.22
27014;BME280;14556;52.222;4.510;2023-04-27T09:43:19;101380.09;;;8.69;71.56
27014;BME280;14556;52.222;4.510;2023-04-27T09:45:47;101373.13;;;8.68;70.05
27014;BME280;14556;52.222;4.510;2023-04-27T09:48:16;101380.63;;;8.97;74.05
27014;BME280;14556;52.222;4.510;2023-04-27T09:50:44;101352.22;;;8.80;71.57
27014;BME280;14556;52.222;4.510;2023-04-27T09:53:13;101371.56;;;8.74;71.60
27014;BME280;14556;52.222;4.510;2023-04-27T09:58:42;101365.81;;;8.94;72.01
27014;BME280;14556;52.222;4.510;2023-04-27T10:01:38;101373.56;;;9.12;74.54
27014;BME280;14556;52.222;4.510;2023-04-27T10:07:10;101371.34;;;9.24;73.18
27014;BME280;14556;52.222;4.510;2023-04-27T10:09:44;101373.34;;;9.22;72.67
27014;BME280;14556;52.222;4.510;2023-04-27T10:12:14;101384.03;;;9.22;79.39
27014;BME280;14556;52.222;4.510;2023-04-27T10:17:15;101371.22;;;9.41;69.88
27014;BME280;14556;52.222;4.510;2023-04-27T10:20:13;101364.81;;;9.50;70.13
27014;BME280;14556;52.222;4.510;2023-04-27T10:22:48;101337.34;;;9.41;67.02
27014;BME280;14556;52.222;4.510;2023-04-27T10:25:20;101372.94;;;9.57;71.20
27014;BME280;14556;52.222;4.510;2023-04-27T10:27:48;101349.47;;;9.44;73.26
27014;BME280;14556;52.222;4.510;2023-04-27T10:30:18;101374.34;;;9.45;72.47
27014;BME280;14556;52.222;4.510;2023-04-27T10:32:50;101360.72;;;9.63;72.68
27014;BME280;14556;52.222;4.510;2023-04-27T10:35:18;101352.81;;;9.70;63.27
27014;BME280;14556;52.222;4.510;2023-04-27T10:37:44;101359.31;;;9.90;64.35
27014;BME280;14556;52.222;4.510;2023-04-27T10:40:13;101341.31;;;9.84;59.73
27014;BME280;14556;52.222;4.510;2023-04-27T10:42:46;101353.47;;;9.72;62.00
27014;BME280;14556;52.222;4.510;2023-04-27T10:45:25;101348.97;;;9.87;62.23
27014;BME280;14556;52.222;4.510;2023-04-27T10:47:58;101348.25;;;9.94;64.21
27014;BME280;14556;52.222;4.510;2023-04-27T10:50:26;101349.56;;;10.13;66.25
27014;BME280;14556;52.222;4.510;2023-04-27T10:52:53;101340.78;;;10.19;62.96
27014;BME280;14556;52.222;4.510;2023-04-27T10:55:21;101335.56;;;10.26;60.27
27014;BME280;14556;52.222;4.510;2023-04-27T10:57:50;101327.53;;;10.11;58.23
27014;BME280;14556;52.222;4.510;2023-04-27T11:00:41;101324.97;;;10.33;60.51
27014;BME280;14556;52.222;4.510;2023-04-27T11:05:40;101329.19;;;10.12;59.68
27014;BME280;14556;52.222;4.510;2023-04-27T11:08:12;101326.81;;;10.17;62.13
27014;BME280;14556;52.222;4.510;2023-04-27T11:10:42;101321.06;;;10.35;61.16
27014;BME280;14556;52.222;4.510;2023-04-27T11:13:11;101321.34;;;10.25;58.44
27014;BME280;14556;52.222;4.510;2023-04-27T11:18:15;101309.56;;;10.20;56.42
27014;BME280;14556;52.222;4.510;2023-04-27T11:20:46;101318.88;;;10.24;59.64
27014;BME280;14556;52.222;4.510;2023-04-27T11:23:27;101279.13;;;10.06;57.15
27014;BME280;14556;52.222;4.510;2023-04-27T11:25:55;101297.22;;;10.19;57.62
27014;BME280;14556;52.222;4.510;2023-04-27T11:28:22;101287.44;;;10.26;58.55
27014;BME280;14556;52.222;4.510;2023-04-27T11:30:56;101290.13;;;10.26;56.41
27014;BME280;14556;52.222;4.510;2023-04-27T11:33:23;101301.53;;;10.35;59.17
27014;BME280;14556;52.222;4.510;2023-04-27T11:35:49;101299.78;;;10.57;58.97
27014;BME280;14556;52.222;4.510;2023-04-27T11:38:17;101301.25;;;10.60;61.03
27014;BME280;14556;52.222;4.510;2023-04-27T11:40:45;101296.88;;;10.74;60.84
27014;BME280;14556;52.222;4.510;2023-04-27T11:43:13;101290.34;;;10.61;56.39
27014;BME280;14556;52.222;4.510;2023-04-27T11:45:41;101281.78;;;10.51;56.79
27014;BME280;14556;52.222;4.510;2023-04-27T11:48:13;101279.31;;;10.49;57.10
27014;BME280;14556;52.222;4.510;2023-04-27T11:50:45;101291.13;;;10.77;57.01
27014;BME280;14556;52.222;4.510;2023-04-27T11:53:12;101297.22;;;10.86;57.63
27014;BME280;14556;52.222;4.510;2023-04-27T11:55:41;101280.00;;;10.73;56.27
27014;BME280;14556;52.222;4.510;2023-04-27T11:58:15;101286.19;;;10.74;59.20
27014;BME280;14556;52.222;4.510;2023-04-27T12:00:41;101286.69;;;10.62;55.37
27014;BME280;14556;52.222;4.510;2023-04-27T12:03:08;101295.22;;;10.73;60.23
27014;BME280;14556;52.222;4.510;2023-04-27T12:05:35;101285.53;;;10.72;55.13
27014;BME280;14556;52.222;4.510;2023-04-27T12:08:02;101271.94;;;10.51;55.83
27014;BME280;14556;52.222;4.510;2023-04-27T12:10:28;101291.00;;;10.63;59.10
27014;BME280;14556;52.222;4.510;2023-04-27T12:12:55;101283.22;;;10.84;58.43
27014;BME280;14556;52.222;4.510;2023-04-27T12:15:21;101281.66;;;10.96;56.07
27014;BME280;14556;52.222;4.510;2023-04-27T12:17:48;101280.53;;;10.84;56.12
27014;BME280;14556;52.222;4.510;2023-04-27T12:20:14;101282.78;;;10.65;55.65
27014;BME280;14556;52.222;4.510;2023-04-27T12:22:41;101277.19;;;10.45;54.68
27014;BME280;14556;52.222;4.510;2023-04-27T12:25:07;101274.41;;;10.38;57.15
27014;BME280;14556;52.222;4.510;2023-04-27T12:27:35;101276.97;;;10.61;56.57
27014;BME280;14556;52.222;4.510;2023-04-27T12:30:01;101268.13;;;10.61;55.71
27014;BME280;14556;52.222;4.510;2023-04-27T12:32:28;101271.53;;;10.70;54.17
27014;BME280;14556;52.222;4.510;2023-04-27T12:34:54;101261.91;;;10.75;54.85
27014;BME280;14556;52.222;4.510;2023-04-27T12:37:21;101268.28;;;10.74;55.95
27014;BME280;14556;52.222;4.510;2023-04-27T12:39:50;101255.69;;;10.53;55.22
27014;BME280;14556;52.222;4.510;2023-04-27T12:42:17;101254.66;;;10.39;53.25
27014;BME280;14556;52.222;4.510;2023-04-27T12:44:52;101248.25;;;10.48;53.59
27014;BME280;14556;52.222;4.510;2023-04-27T12:47:21;101253.09;;;10.60;54.52
27014;BME280;14556;52.222;4.510;2023-04-27T12:49:51;101246.50;;;10.78;53.28
27014;BME280;14556;52.222;4.510;2023-04-27T12:52:18;101251.66;;;10.79;53.69
27014;BME280;14556;52.222;4.510;2023-04-27T12:54:45;101250.59;;;10.73;52.15
27014;BME280;14556;52.222;4.510;2023-04-27T12:57:11;101256.09;;;10.72;55.54
27014;BME280;14556;52.222;4.510;2023-04-27T12:59:38;101244.41;;;10.58;54.23
27014;BME280;14556;52.222;4.510;2023-04-27T13:02:04;101251.50;;;10.66;52.23
27014;BME280;14556;52.222;4.510;2023-04-27T13:04:31;101260.19;;;10.68;52.55
27014;BME280;14556;52.222;4.510;2023-04-27T13:06:58;101246.47;;;10.56;53.22
27014;BME280;14556;52.222;4.510;2023-04-27T13:09:26;101248.31;;;10.55;54.50